createdAt,value
2018-10-07T00:01:59.302Z,95600.34
2018-10-07T00:04:27.306Z,95594.17
2018-10-07T00:06:55.283Z,95592.94
2018-10-07T00:09:23.242Z,95591.41
2018-10-07T00:11:51.898Z,95590.31
2018-10-07T00:14:19.930Z,95594.42
2018-10-07T00:16:47.951Z,95582.71
2018-10-07T00:19:16.918Z,95581.36
2018-10-07T00:21:45.193Z,95583.92
2018-10-07T00:24:13.163Z,95570.61
2018-10-07T00:26:41.414Z,95563.41
2018-10-07T00:29:09.367Z,95560.38
2018-10-07T00:31:42.662Z,95554.38
2018-10-07T00:34:10.679Z,95554.84
2018-10-07T00:36:38.573Z,95551.92
2018-10-07T00:39:09.885Z,95552.03
2018-10-07T00:41:37.820Z,95543.06
2018-10-07T00:44:05.957Z,95537.35
2018-10-07T00:46:34.550Z,95530.58
2018-10-07T00:49:02.734Z,95531.52
2018-10-07T00:51:30.779Z,95521.53
2018-10-07T00:53:58.758Z,95521.12
2018-10-07T00:56:27.120Z,95515.25
2018-10-07T00:58:55.145Z,95522.09
2018-10-07T01:01:23.902Z,95529.77
2018-10-07T01:03:52.231Z,95524.36
2018-10-07T01:06:20.233Z,95518.90
2018-10-07T01:08:48.264Z,95508.51
2018-10-07T01:11:16.312Z,95515.45
2018-10-07T01:13:44.368Z,95513.30
2018-10-07T01:16:12.453Z,95513.38
2018-10-07T01:18:40.497Z,95518.20
2018-10-07T01:21:08.559Z,95517.11
2018-10-07T01:23:36.605Z,95518.64
2018-10-07T01:26:04.567Z,95503.74
2018-10-07T01:28:32.534Z,95511.29
2018-10-07T01:31:00.558Z,95504.47
2018-10-07T01:33:29.398Z,95498.98
2018-10-07T01:35:57.486Z,95497.83
2018-10-07T01:38:26.019Z,95495.83
2018-10-07T01:40:53.947Z,95499.25
2018-10-07T01:43:21.925Z,95498.88
2018-10-07T01:45:50.029Z,95492.23
2018-10-07T01:48:18.026Z,95498.87
2018-10-07T01:50:46.015Z,95495.84
2018-10-07T01:53:14.048Z,95493.67
2018-10-07T01:55:42.062Z,95486.79
2018-10-07T01:58:09.952Z,95488.37
2018-10-07T02:00:38.947Z,95484.13
2018-10-07T02:03:07.103Z,95488.11
2018-10-07T02:05:35.539Z,95482.84
2018-10-07T02:08:03.663Z,95490.54
2018-10-07T02:10:31.750Z,95491.36
2018-10-07T02:12:59.626Z,95488.16
2018-10-07T02:15:28.542Z,95478.58
2018-10-07T02:17:56.564Z,95476.46
2018-10-07T02:20:24.607Z,95472.05
2018-10-07T02:22:52.637Z,95471.36
2018-10-07T02:25:20.762Z,95479.06
2018-10-07T02:27:48.954Z,95475.84
2018-10-07T02:30:17.105Z,95479.91
2018-10-07T02:32:45.058Z,95473.19
2018-10-07T02:35:13.663Z,95464.59
2018-10-07T02:37:41.899Z,95467.97
2018-10-07T02:40:09.867Z,95475.39
2018-10-07T02:42:37.922Z,95469.81
2018-10-07T02:45:06.158Z,95470.84
2018-10-07T02:47:34.094Z,95466.09
2018-10-07T02:50:10.212Z,95469.83
2018-10-07T02:52:43.738Z,95461.79
2018-10-07T02:55:11.850Z,95466.77
2018-10-07T02:57:40.020Z,95468.30
2018-10-07T03:00:08.018Z,95456.39
2018-10-07T03:02:35.994Z,95468.27
2018-10-07T03:05:04.026Z,95473.84
2018-10-07T03:07:32.094Z,95474.00
2018-10-07T03:09:59.963Z,95470.48
2018-10-07T03:12:27.886Z,95471.99
2018-10-07T03:14:55.810Z,95470.56
2018-10-07T03:17:23.843Z,95460.80
2018-10-07T03:19:52.887Z,95459.53
2018-10-07T03:22:20.928Z,95460.74
2018-10-07T03:24:49.003Z,95463.44
2018-10-07T03:27:17.195Z,95467.74
2018-10-07T03:29:45.569Z,95464.13
2018-10-07T03:32:13.529Z,95456.88
2018-10-07T03:34:41.551Z,95462.76
2018-10-07T03:37:09.450Z,95460.74
2018-10-07T03:39:37.631Z,95454.34
2018-10-07T03:42:05.553Z,95452.25
2018-10-07T03:44:33.514Z,95450.48
2018-10-07T03:47:01.898Z,95458.22
2018-10-07T03:49:29.852Z,95459.73
2018-10-07T03:51:57.784Z,95458.30
2018-10-07T03:54:26.439Z,95453.77
2018-10-07T03:56:54.606Z,95458.23
2018-10-07T03:59:22.842Z,95448.42
2018-10-07T04:01:51.948Z,95449.78
2018-10-07T04:04:20.050Z,95448.00
2018-10-07T04:06:48.428Z,95450.80
2018-10-07T04:09:16.386Z,95457.69
2018-10-07T04:11:44.333Z,95456.78
2018-10-07T04:14:13.062Z,95458.56
2018-10-07T04:16:41.047Z,95446.09
2018-10-07T04:19:09.932Z,95453.19
2018-10-07T04:25:28.295Z,95449.30
2018-10-07T04:27:56.379Z,95447.92
2018-10-07T04:30:24.324Z,95443.83
2018-10-07T04:32:52.435Z,95445.34
2018-10-07T04:35:20.392Z,95452.03
2018-10-07T04:37:48.419Z,95449.17
2018-10-07T04:40:16.455Z,95443.70
2018-10-07T04:42:44.553Z,95457.05
2018-10-07T04:45:12.573Z,95447.94
2018-10-07T04:47:40.744Z,95445.58
2018-10-07T04:50:08.929Z,95447.79
2018-10-07T04:52:37.133Z,95454.56
2018-10-07T04:55:05.361Z,95452.60
2018-10-07T04:57:33.334Z,95455.64
2018-10-07T05:00:01.246Z,95451.83
2018-10-07T05:02:29.391Z,95452.11
2018-10-07T05:04:57.650Z,95457.27
2018-10-07T05:07:25.697Z,95463.63
2018-10-07T05:10:58.522Z,95464.06
2018-10-07T05:13:30.535Z,95472.11
2018-10-07T05:16:01.098Z,95469.42
2018-10-07T05:18:29.191Z,95460.41
2018-10-07T05:20:57.230Z,95464.43
2018-10-07T05:23:25.150Z,95463.45
2018-10-07T05:25:53.153Z,95464.47
2018-10-07T05:28:21.336Z,95470.53
2018-10-07T05:30:49.370Z,95472.70
2018-10-07T05:33:17.338Z,95471.75
2018-10-07T05:35:45.281Z,95473.16
2018-10-07T05:38:17.200Z,95468.41
2018-10-07T05:40:45.156Z,95464.43
2018-10-07T05:43:13.186Z,95467.30
2018-10-07T05:45:41.138Z,95468.40
2018-10-07T05:48:09.958Z,95466.13
2018-10-07T05:50:38.181Z,95459.03
2018-10-07T05:53:07.362Z,95460.72
2018-10-07T05:55:36.531Z,95465.73
2018-10-07T05:58:05.381Z,95458.25
2018-10-07T06:00:35.536Z,95471.33
2018-10-07T06:03:13.009Z,95462.53
2018-10-07T06:05:41.274Z,95453.72
2018-10-07T06:08:09.900Z,95450.78
2018-10-07T06:10:38.570Z,95458.18
2018-10-07T06:13:06.711Z,95457.60
2018-10-07T06:15:37.103Z,95451.00
2018-10-07T06:18:05.380Z,95462.64
2018-10-07T06:20:34.805Z,95464.63
2018-10-07T06:23:02.875Z,95468.98
2018-10-07T06:25:31.310Z,95468.83
2018-10-07T06:27:59.346Z,95457.71
2018-10-07T06:30:28.007Z,95455.44
2018-10-07T06:32:55.960Z,95452.64
2018-10-07T06:35:24.663Z,95453.42
2018-10-07T06:37:53.289Z,95459.77
2018-10-07T06:40:21.654Z,95465.83
2018-10-07T06:42:49.810Z,95461.73
2018-10-07T06:45:17.899Z,95459.83
2018-10-07T06:47:46.051Z,95462.11
2018-10-07T06:50:14.123Z,95463.71
2018-10-07T06:52:42.417Z,95462.41
2018-10-07T06:55:10.404Z,95448.42
2018-10-07T06:57:38.442Z,95456.48
2018-10-07T07:00:07.403Z,95459.03
2018-10-07T07:02:35.482Z,95451.11
2018-10-07T07:05:03.657Z,95454.51
2018-10-07T07:07:31.685Z,95449.89
2018-10-07T07:09:59.731Z,95451.77
2018-10-07T07:12:27.694Z,95451.61
2018-10-07T07:14:56.154Z,95443.05
2018-10-07T07:17:24.142Z,95451.75
2018-10-07T07:19:52.244Z,95434.03
2018-10-07T07:22:20.247Z,95448.06
2018-10-07T07:24:48.251Z,95442.14
2018-10-07T07:30:37.312Z,95434.92
2018-10-07T07:33:05.397Z,95441.11
2018-10-07T07:35:33.608Z,95435.22
2018-10-07T07:38:01.614Z,95435.66
2018-10-07T07:40:30.151Z,95439.09
2018-10-07T07:42:58.294Z,95427.67
2018-10-07T07:45:26.346Z,95432.54
2018-10-07T07:47:54.459Z,95431.77
2018-10-07T07:50:22.438Z,95431.58
2018-10-07T07:52:50.563Z,95428.45
2018-10-07T07:55:18.606Z,95427.24
2018-10-07T07:57:46.587Z,95431.91
2018-10-07T08:00:29.380Z,95426.33
2018-10-07T08:02:58.484Z,95421.98
2018-10-07T08:05:26.448Z,95410.63
2018-10-07T08:07:54.383Z,95401.34
2018-10-07T08:10:22.386Z,95408.62
2018-10-07T08:12:50.482Z,95407.15
2018-10-07T08:15:18.559Z,95400.48
2018-10-07T08:17:46.564Z,95395.13
2018-10-07T08:20:14.611Z,95408.28
2018-10-07T08:22:42.658Z,95402.09
2018-10-07T08:25:10.649Z,95403.28
2018-10-07T08:27:39.043Z,95387.46
2018-10-07T08:30:07.376Z,95390.09
2018-10-07T08:32:35.477Z,95395.38
2018-10-07T08:35:03.656Z,95386.17
2018-10-07T08:37:31.653Z,95387.84
2018-10-07T08:39:59.760Z,95389.25
2018-10-07T08:42:27.837Z,95375.16
2018-10-07T08:44:55.961Z,95375.73
2018-10-07T08:47:24.156Z,95386.40
2018-10-07T08:49:53.233Z,95383.06
2018-10-07T08:52:21.151Z,95372.63
2018-10-07T08:54:49.311Z,95374.08
2018-10-07T08:57:17.317Z,95367.17
2018-10-07T08:59:45.246Z,95375.06
2018-10-07T09:02:13.395Z,95366.04
2018-10-07T09:04:41.418Z,95364.14
2018-10-07T09:07:09.466Z,95352.98
2018-10-07T09:09:37.450Z,95357.23
2018-10-07T09:12:05.680Z,95349.81
2018-10-07T09:14:33.854Z,95352.59
2018-10-07T09:17:01.877Z,95355.12
2018-10-07T09:19:29.830Z,95350.20
2018-10-07T09:21:57.924Z,95347.17
2018-10-07T09:24:25.834Z,95339.45
2018-10-07T09:26:53.826Z,95336.70
2018-10-07T09:29:22.133Z,95339.97
2018-10-07T09:31:50.312Z,95335.23
2018-10-07T09:34:18.406Z,95334.26
2018-10-07T09:36:46.439Z,95330.19
2018-10-07T09:39:14.621Z,95324.78
2018-10-07T09:41:42.623Z,95325.48
2018-10-07T09:44:10.579Z,95320.16
2018-10-07T09:46:40.138Z,95317.48
2018-10-07T09:49:08.401Z,95308.51
2018-10-07T09:51:38.559Z,95295.91
2018-10-07T09:54:06.616Z,95297.80
2018-10-07T09:56:34.678Z,95290.74
2018-10-07T09:59:02.727Z,95293.67
2018-10-07T10:01:30.977Z,95297.16
2018-10-07T10:04:05.397Z,95295.42
2018-10-07T10:06:33.423Z,95285.08
2018-10-07T10:09:01.303Z,95281.17
2018-10-07T10:11:30.179Z,95279.95
2018-10-07T10:13:58.213Z,95268.87
2018-10-07T10:16:33.453Z,95268.16
2018-10-07T10:19:37.990Z,95265.98
2018-10-07T10:24:18.507Z,95263.55
2018-10-07T10:27:58.822Z,95254.77
2018-10-07T10:30:36.654Z,95253.39
2018-10-07T10:33:12.556Z,95242.11
2018-10-07T10:36:54.871Z,95242.92
2018-10-07T10:39:33.871Z,95242.26
2018-10-07T10:42:14.608Z,95234.39
2018-10-07T10:44:46.871Z,95233.95
2018-10-07T10:47:25.678Z,95225.34
2018-10-07T10:49:58.230Z,95220.08
2018-10-07T10:52:31.226Z,95217.56
2018-10-07T10:56:10.156Z,95213.69
2018-10-07T10:59:48.518Z,95210.65
2018-10-07T11:04:34.167Z,95197.40
2018-10-07T11:07:11.480Z,95200.46
2018-10-07T11:09:52.510Z,95194.19
2018-10-07T11:14:35.520Z,95184.98
2018-10-07T11:17:13.210Z,95182.72
2018-10-07T11:19:49.352Z,95176.97
2018-10-07T11:24:27.238Z,95165.31
2018-10-07T11:27:01.051Z,95172.62
2018-10-07T11:31:42.208Z,95168.41
2018-10-07T11:34:23.768Z,95162.23
2018-10-07T11:39:05.393Z,95157.82
2018-10-07T11:41:44.624Z,95161.87
2018-10-07T11:44:21.163Z,95161.47
2018-10-07T11:47:01.904Z,95159.07
2018-10-07T11:49:36.607Z,95153.26
2018-10-07T11:53:16.524Z,95145.11
2018-10-07T11:55:44.706Z,95138.59
2018-10-07T11:58:12.815Z,95137.87
2018-10-07T12:00:40.908Z,95137.55
2018-10-07T12:03:09.524Z,95129.94
2018-10-07T12:05:37.705Z,95134.52
2018-10-07T12:08:05.889Z,95132.97
2018-10-07T12:10:34.400Z,95122.53
2018-10-07T12:13:02.372Z,95123.43
2018-10-07T12:15:30.660Z,95123.91
2018-10-07T12:17:59.117Z,95128.48
2018-10-07T12:20:27.581Z,95119.59
2018-10-07T12:22:55.582Z,95118.28
2018-10-07T12:25:23.632Z,95115.28
2018-10-07T12:27:53.099Z,95113.16
2018-10-07T12:30:21.073Z,95105.31
2018-10-07T12:32:49.171Z,95102.45
2018-10-07T12:35:17.234Z,95099.95
2018-10-07T12:37:45.261Z,95095.58
2018-10-07T12:40:13.237Z,95099.94
2018-10-07T12:42:41.327Z,95097.41
2018-10-07T12:45:09.282Z,95089.48
2018-10-07T12:47:37.595Z,95087.08
2018-10-07T12:50:05.719Z,95081.74
2018-10-07T12:52:34.933Z,95088.60
2018-10-07T12:55:02.977Z,95081.52
2018-10-07T12:57:30.965Z,95071.24
2018-10-07T12:59:58.999Z,95077.32
2018-10-07T13:02:27.827Z,95071.05
2018-10-07T13:04:56.007Z,95064.70
2018-10-07T13:07:24.084Z,95077.83
2018-10-07T13:09:52.630Z,95072.19
2018-10-07T13:12:20.682Z,95071.66
2018-10-07T13:14:50.514Z,95068.58
2018-10-07T13:17:18.714Z,95062.20
2018-10-07T13:19:47.911Z,95057.48
2018-10-07T13:22:15.923Z,95052.83
2018-10-07T13:24:43.883Z,95053.23
2018-10-07T13:27:12.148Z,95048.25
2018-10-07T13:29:40.351Z,95050.50
2018-10-07T13:32:08.313Z,95054.21
2018-10-07T13:34:36.359Z,95059.59
2018-10-07T13:37:04.410Z,95052.70
2018-10-07T13:39:32.403Z,95058.81
2018-10-07T13:42:00.330Z,95050.30
2018-10-07T13:44:28.356Z,95044.78
2018-10-07T13:46:56.384Z,95050.62
2018-10-07T13:49:24.364Z,95051.88
2018-10-07T13:51:52.455Z,95041.52
2018-10-07T13:54:20.516Z,95044.78
2018-10-07T13:56:48.527Z,95042.79
2018-10-07T13:59:16.539Z,95034.42
2018-10-07T14:01:44.574Z,95033.68
2018-10-07T14:04:13.644Z,95030.89
2018-10-07T14:06:41.714Z,95026.48
2018-10-07T14:09:10.033Z,95024.34
2018-10-07T14:14:13.590Z,95027.86
2018-10-07T14:16:43.146Z,94493.67
2018-10-07T14:19:11.169Z,95021.23
2018-10-07T14:21:40.673Z,95021.46
2018-10-07T14:24:09.781Z,95020.26
2018-10-07T14:26:37.842Z,95032.34
2018-10-07T14:29:06.059Z,95025.53
2018-10-07T14:31:35.699Z,95030.16
2018-10-07T14:34:03.877Z,95025.25
2018-10-07T14:36:31.960Z,95023.24
2018-10-07T14:38:59.936Z,95021.20
2018-10-07T14:41:28.024Z,95028.48
2018-10-07T14:43:56.045Z,95031.25
2018-10-07T14:46:24.036Z,95024.34
2018-10-07T14:48:52.088Z,95029.28
2018-10-07T14:51:20.065Z,95029.81
2018-10-07T14:53:48.467Z,95027.77
2018-10-07T14:56:17.275Z,95028.44
2018-10-07T14:58:45.396Z,95023.30
2018-10-07T15:01:13.518Z,95023.50
2018-10-07T15:03:41.637Z,95024.54
2018-10-07T15:06:09.807Z,95025.10
2018-10-07T15:08:37.956Z,95023.59
2018-10-07T15:11:05.966Z,95019.45
2018-10-07T15:13:34.186Z,95012.13
2018-10-07T15:16:02.209Z,95016.02
2018-10-07T15:18:30.123Z,95030.89
2018-10-07T15:20:58.556Z,95029.52
2018-10-07T15:23:26.746Z,95033.05
2018-10-07T15:25:54.894Z,95033.94
2018-10-07T15:28:22.863Z,95029.98
2018-10-07T15:30:51.219Z,95034.20
2018-10-07T15:33:19.330Z,95038.41
2018-10-07T15:35:47.283Z,94653.62
2018-10-07T15:38:15.191Z,95046.83
2018-10-07T15:40:43.455Z,95050.27
2018-10-07T15:43:11.736Z,95043.59
2018-10-07T15:45:40.646Z,95053.23
2018-10-07T15:48:08.613Z,95056.93
2018-10-07T15:50:37.027Z,95058.80
2018-10-07T15:53:04.976Z,95060.73
2018-10-07T15:55:33.460Z,95058.95
2018-10-07T15:58:01.461Z,95060.47
2018-10-07T16:00:30.193Z,95063.91
2018-10-07T16:02:58.151Z,95064.25
2018-10-07T16:05:26.038Z,95067.91
2018-10-07T16:07:54.506Z,95067.28
2018-10-07T16:10:25.301Z,95074.47
2018-10-07T16:12:53.378Z,95066.39
2018-10-07T16:15:21.373Z,95073.22
2018-10-07T16:17:49.354Z,95081.14
2018-10-07T16:20:17.425Z,95088.75
2018-10-07T16:22:45.582Z,95089.34
2018-10-07T16:25:13.490Z,95092.03
2018-10-07T16:27:41.509Z,95098.09
2018-10-07T16:30:09.516Z,95102.46
2018-10-07T16:32:37.450Z,95096.88
2018-10-07T16:35:05.477Z,95097.17
2018-10-07T16:37:33.494Z,95113.89
2018-10-07T16:40:01.456Z,95115.87
2018-10-07T16:42:29.495Z,95113.89
2018-10-07T16:44:57.494Z,95114.64
2018-10-07T16:47:25.495Z,95117.48
2018-10-07T16:49:53.531Z,95124.00
2018-10-07T16:52:21.522Z,95125.23
2018-10-07T16:54:49.765Z,95133.06
2018-10-07T16:57:17.766Z,95127.79
2018-10-07T16:59:45.666Z,95131.25
2018-10-07T17:02:13.913Z,95137.36
2018-10-07T17:04:41.980Z,95142.18
2018-10-07T17:07:09.990Z,95146.84
2018-10-07T17:09:38.041Z,95148.95
2018-10-07T17:12:06.605Z,95146.72
2018-10-07T17:14:34.675Z,95150.47
2018-10-07T17:17:02.674Z,95156.63
2018-10-07T17:19:30.863Z,95154.55
2018-10-07T17:21:59.234Z,95158.02
2018-10-07T17:24:27.252Z,95157.48
2018-10-07T17:26:56.048Z,95149.90
2018-10-07T17:29:24.233Z,95161.05
2018-10-07T17:31:52.334Z,95169.27
2018-10-07T17:34:20.373Z,95166.39
2018-10-07T17:36:48.463Z,95167.26
2018-10-07T17:39:16.592Z,95161.94
2018-10-07T17:41:44.586Z,95163.04
2018-10-07T17:44:13.588Z,95169.82
2018-10-07T17:46:41.589Z,95171.78
2018-10-07T17:49:09.710Z,95172.53
2018-10-07T17:51:39.117Z,95179.06
2018-10-07T17:54:07.187Z,95180.68
2018-10-07T17:56:35.259Z,95188.99
2018-10-07T17:59:03.443Z,95184.08
2018-10-07T18:01:32.094Z,95192.00
2018-10-07T18:04:00.105Z,95193.91
2018-10-07T18:06:28.070Z,95186.36
2018-10-07T18:08:56.082Z,95196.86
2018-10-07T18:11:26.457Z,95181.83
2018-10-07T18:13:54.464Z,95203.71
2018-10-07T18:16:22.583Z,95195.45
2018-10-07T18:18:50.587Z,95203.66
2018-10-07T18:21:18.840Z,95206.47
2018-10-07T18:23:46.882Z,95207.13
2018-10-07T18:26:15.065Z,95205.97
2018-10-07T18:28:43.035Z,95205.91
2018-10-07T18:31:11.083Z,95207.80
2018-10-07T18:33:39.082Z,95210.03
2018-10-07T18:36:07.156Z,95214.28
2018-10-07T18:38:35.140Z,95203.08
2018-10-07T18:41:03.398Z,95218.30
2018-10-07T18:43:31.423Z,95212.84
2018-10-07T18:45:59.388Z,95218.55
2018-10-07T18:48:27.970Z,95198.70
2018-10-07T18:50:56.188Z,95221.10
2018-10-07T18:53:24.196Z,95223.61
2018-10-07T18:55:52.221Z,95225.61
2018-10-07T18:58:20.261Z,95224.08
2018-10-07T19:00:48.284Z,95230.88
2018-10-07T19:03:16.235Z,95229.63
2018-10-07T19:05:44.387Z,95225.47
2018-10-07T19:08:12.581Z,95232.97
2018-10-07T19:10:41.238Z,95236.96
2018-10-07T19:13:09.188Z,95231.08
2018-10-07T19:15:37.343Z,95235.89
2018-10-07T19:18:05.570Z,95236.40
2018-10-07T19:20:33.731Z,95242.14
2018-10-07T19:23:01.732Z,95235.99
2018-10-07T19:25:29.901Z,95239.62
2018-10-07T19:27:57.874Z,95233.47
2018-10-07T19:30:25.851Z,95247.84
2018-10-07T19:32:53.869Z,95254.09
2018-10-07T19:35:21.826Z,95259.47
2018-10-07T19:37:50.699Z,95263.48
2018-10-07T19:40:18.896Z,95264.31
2018-10-07T19:42:46.984Z,95267.94
2018-10-07T19:45:15.213Z,95267.44
2018-10-07T19:47:43.162Z,95265.01
2018-10-07T19:50:11.180Z,95260.43
2018-10-07T19:52:39.356Z,95263.80
2018-10-07T19:55:08.090Z,95255.38
2018-10-07T19:57:36.447Z,95260.07
2018-10-07T20:00:05.416Z,95255.17
2018-10-07T20:02:33.312Z,95267.04
2018-10-07T20:05:01.195Z,95256.47
2018-10-07T20:07:29.256Z,95258.48
2018-10-07T20:09:57.889Z,95266.30
2018-10-07T20:12:25.964Z,95274.90
2018-10-07T20:14:53.873Z,95273.02
2018-10-07T20:17:21.803Z,95272.00
2018-10-07T20:19:49.822Z,95270.07
2018-10-07T20:22:18.268Z,95270.81
2018-10-07T20:24:46.444Z,95269.02
2018-10-07T20:27:14.410Z,95272.19
2018-10-07T20:29:42.497Z,95261.58
2018-10-07T20:32:10.707Z,95270.95
2018-10-07T20:34:38.665Z,95268.31
2018-10-07T20:37:06.763Z,95269.25
2018-10-07T20:39:34.702Z,95269.39
2018-10-07T20:42:02.613Z,95265.14
2018-10-07T20:44:30.626Z,95263.69
2018-10-07T20:46:58.963Z,95269.16
2018-10-07T20:49:26.948Z,95262.24
2018-10-07T20:51:55.057Z,95269.10
2018-10-07T20:54:23.114Z,95274.55
2018-10-07T20:56:51.037Z,95274.66
2018-10-07T20:59:20.031Z,95271.45
2018-10-07T21:01:50.144Z,95282.14
2018-10-07T21:04:18.155Z,95276.77
2018-10-07T21:06:46.177Z,95272.83
2018-10-07T21:09:14.700Z,95277.66
2018-10-07T21:11:43.158Z,95274.44
2018-10-07T21:14:11.110Z,95280.25
2018-10-07T21:16:39.012Z,95278.60
2018-10-07T21:19:07.035Z,95274.98
2018-10-07T21:21:35.072Z,95278.60
2018-10-07T21:24:03.408Z,95276.64
2018-10-07T21:26:31.406Z,95269.55
2018-10-07T21:29:00.217Z,95270.30
2018-10-07T21:31:29.354Z,95269.38
2018-10-07T21:33:57.364Z,95271.16
2018-10-07T21:36:25.287Z,95279.03
2018-10-07T21:38:53.225Z,95276.52
2018-10-07T21:41:21.229Z,95275.47
2018-10-07T21:43:49.286Z,95271.66
2018-10-07T21:46:17.254Z,95268.09
2018-10-07T21:48:45.599Z,95263.31
2018-10-07T21:51:16.114Z,95273.34
2018-10-07T21:53:44.572Z,95275.61
2018-10-07T21:56:13.151Z,95267.92
2018-10-07T21:58:41.090Z,95272.45
2018-10-07T22:01:09.042Z,95272.10
2018-10-07T22:03:41.170Z,95274.25
2018-10-07T22:06:09.377Z,95266.36
2018-10-07T22:08:37.457Z,95262.80
2018-10-07T22:11:05.946Z,95261.89
2018-10-07T22:13:34.059Z,95268.63
2018-10-07T22:16:01.995Z,95248.44
2018-10-07T22:18:31.654Z,95263.08
2018-10-07T22:20:59.718Z,95251.89
2018-10-07T22:23:27.734Z,95253.88
2018-10-07T22:25:55.718Z,95255.11
2018-10-07T22:28:23.653Z,95257.83
2018-10-07T22:30:51.685Z,95251.33
2018-10-07T22:33:19.730Z,95247.72
2018-10-07T22:35:47.877Z,95252.85
2018-10-07T22:38:16.792Z,95257.69
2018-10-07T22:40:44.838Z,95255.56
2018-10-07T22:43:12.772Z,95260.87
2018-10-07T22:45:40.718Z,95268.25
2018-10-07T22:48:08.678Z,95267.23
2018-10-07T22:50:36.682Z,95271.02
2018-10-07T22:53:04.750Z,95267.37
2018-10-07T22:55:32.779Z,95265.88
2018-10-07T22:58:00.831Z,95269.95
2018-10-07T23:00:28.883Z,95268.30
2018-10-07T23:02:56.823Z,95265.88
2018-10-07T23:05:24.809Z,95261.06
2018-10-07T23:07:52.763Z,95260.47
2018-10-07T23:10:20.848Z,95256.56
2018-10-07T23:12:48.828Z,95254.41
2018-10-07T23:15:16.865Z,95258.34
2018-10-07T23:17:44.785Z,95263.16
2018-10-07T23:20:12.951Z,95251.59
2018-10-07T23:22:41.107Z,95255.93
2018-10-07T23:25:09.361Z,95257.44
2018-10-07T23:27:37.426Z,95257.03
2018-10-07T23:30:05.493Z,95258.80
2018-10-07T23:32:33.440Z,95251.72
2018-10-07T23:35:01.395Z,95254.59
2018-10-07T23:37:29.400Z,95253.89
2018-10-07T23:39:57.424Z,95250.06
2018-10-07T23:42:25.447Z,95249.47
2018-10-07T23:44:53.367Z,95255.72
2018-10-07T23:47:21.467Z,95250.14
2018-10-07T23:49:49.545Z,95255.08
2018-10-07T23:52:17.493Z,95255.70
2018-10-07T23:54:45.657Z,95251.44
2018-10-07T23:57:13.676Z,95253.91
2018-10-07T23:59:41.702Z,95254.50
